Time;durP1;ratioP1;P1;durP2;ratioP2;P2;SDS_P1;SDS_P2;PMS_P1;PMS_P2;Temp;Humidity;BMP_temperature;BMP_pressure;BME280_temperature;BME280_humidity;BME280_pressure;Samples;Min_cycle;Max_cycle;Signal;HPM_P1;HPM_P2
2023/08/02 00:01:32;;;;;;;;;;;;;;;-144.99;nan;52433.81;5030775;28;19933;-76
2023/08/02 00:03:58;;;;;;;;;;;;;;;-144.99;nan;52439.94;5030728;28;19969;-76
2023/08/02 00:06:27;;;;;;;;;;;;;;;-144.99;nan;52427.72;5030813;28;20047;-76
2023/08/02 00:08:55;;;;;;;;;;;;;;;-144.99;nan;52435.88;5024977;28;19926;-77
2023/08/02 00:11:21;;;;;;;;;;;;;;;-144.99;nan;52437.91;5035597;28;20004;-77
2023/08/02 00:13:47;;;;;;;;;;;;;;;-144.99;nan;52452.16;5036966;28;19960;-79
2023/08/02 00:16:14;;;;;;;;;;;;;;;-144.99;nan;52468.47;5034753;28;19926;-78
2023/08/02 00:18:40;;;;;;;;;;;;;;;-144.99;nan;52435.88;5032991;28;19936;-79
2023/08/02 00:21:07;;;;;;;;;;;;;;;-144.99;nan;52441.97;5038645;28;19929;-77
2023/08/02 00:23:33;;;;;;;;;;;;;;;-144.99;nan;52435.88;5036855;28;19932;-78
2023/08/02 00:26:01;;;;;;;;;;;;;;;-144.99;nan;52425.66;5034998;28;19937;-78
2023/08/02 00:28:28;;;;;;;;;;;;;;;-144.99;nan;52433.81;5028765;28;20307;-77
2023/08/02 00:30:54;;;;;;;;;;;;;;;-144.99;nan;52433.81;5034566;28;19925;-78
2023/08/02 00:33:20;;;;;;;;;;;;;;;-144.99;nan;52456.25;5032917;28;20003;-78
2023/08/02 00:35:48;;;;;;;;;;;;;;;-144.99;nan;52395.09;5032971;28;19956;-78
2023/08/02 00:38:15;;;;;;;;;;;;;;;-144.99;nan;52439.94;5030873;28;19931;-78
2023/08/02 00:40:42;;;;;;;;;;;;;;;-144.99;nan;52435.88;5027849;28;19929;-78
2023/08/02 00:43:10;;;;;;;;;;;;;;;-144.99;nan;52448.09;5030113;28;19936;-78
2023/08/02 00:45:36;;;;;;;;;;;;;;;-144.99;nan;52450.13;5039360;28;20028;-78
2023/08/02 00:48:03;;;;;;;;;;;;;;;-144.99;nan;52456.25;5022947;28;19972;-77
2023/08/02 00:50:31;;;;;;;;;;;;;;;-144.99;nan;52439.94;5029415;28;20011;-77
2023/08/02 00:52:57;;;;;;;;;;;;;;;-144.99;nan;52476.63;5028202;28;19984;-77
2023/08/02 00:55:24;;;;;;;;;;;;;;;-144.99;nan;52444.03;5028308;28;20392;-77
2023/08/02 00:57:50;;;;;;;;;;;;;;;-144.99;nan;52437.91;5021576;28;19991;-77
2023/08/02 01:00:18;;;;;;;;;;;;;;;-144.99;nan;52452.16;5027181;28;20020;-77
2023/08/02 01:02:44;;;;;;;;;;;;;;;-144.99;nan;52448.09;5028581;28;19925;-77
2023/08/02 01:05:11;;;;;;;;;;;;;;;-144.99;nan;52435.88;5027473;28;19980;-77
2023/08/02 01:07:41;;;;;;;;;;;;;;;-144.99;nan;52417.53;5031118;28;19991;-77
2023/08/02 01:10:10;;;;;;;;;;;;;;;-144.99;nan;52435.88;5018940;28;19925;-74
2023/08/02 01:12:38;;;;;;;;;;;;;;;-144.99;nan;52444.03;5027410;28;20024;-77
2023/08/02 01:15:06;;;;;;;;;;;;;;;-144.99;nan;52435.88;5023895;28;19948;-76
2023/08/02 01:17:34;;;;;;;;;;;;;;;-144.99;nan;52456.25;5013016;28;19991;-75
2023/08/02 01:20:03;;;;;;;;;;;;;;;-144.99;nan;52435.88;5022949;28;19933;-76
2023/08/02 01:22:30;;;;;;;;;;;;;;;-144.99;nan;52444.03;5025709;28;19932;-76
2023/08/02 01:24:59;;;;;;;;;;;;;;;-144.99;nan;52448.09;5031537;28;20032;-75
2023/08/02 01:27:27;;;;;;;;;;;;;;;-144.99;nan;52413.44;5045827;28;20060;-76
2023/08/02 01:29:54;;;;;;;;;;;;;;;-144.99;nan;52423.63;5046505;28;19913;-77
2023/08/02 01:32:22;;;;;;;;;;;;;;;-144.99;nan;52472.56;5037791;28;19913;-76
2023/08/02 01:34:49;;;;;;;;;;;;;;;-144.99;nan;52415.47;5047307;28;19936;-75
2023/08/02 01:37:17;;;;;;;;;;;;;;;-144.99;nan;52478.66;5043197;28;19932;-80
2023/08/02 01:39:44;;;;;;;;;;;;;;;-144.99;nan;52444.03;5050564;28;20023;-77
2023/08/02 01:42:10;;;;;;;;;;;;;;;-144.99;nan;52439.94;5044096;28;19932;-76
2023/08/02 01:44:37;;;;;;;;;;;;;;;-144.99;nan;52462.34;5041882;28;19925;-76
2023/08/02 01:47:03;;;;;;;;;;;;;;;-144.99;nan;52433.81;5032752;28;19930;-79
2023/08/02 01:49:30;;;;;;;;;;;;;;;-144.99;nan;52405.28;5045229;28;19964;-76
2023/08/02 01:51:56;;;;;;;;;;;;;;;-144.99;nan;52444.03;5041866;28;19929;-76
2023/08/02 01:54:24;;;;;;;;;;;;;;;-144.99;nan;52439.94;5028014;28;19929;-75
2023/08/02 01:56:50;;;;;;;;;;;;;;;-144.99;nan;52452.16;5022666;28;19926;-75
2023/08/02 01:59:17;;;;;;;;;;;;;;;-144.99;nan;52472.56;5026492;28;19957;-75
2023/08/02 02:01:43;;;;;;;;;;;;;;;-144.99;nan;52435.88;5028505;28;19971;-74
2023/08/02 02:04:10;;;;;;;;;;;;;;;-144.99;nan;52460.31;5030784;28;20019;-73
2023/08/02 02:06:36;;;;;;;;;;;;;;;-144.99;nan;52460.31;5028551;28;20019;-74
2023/08/02 02:09:02;;;;;;;;;;;;;;;-144.99;nan;52419.56;5028221;28;20019;-75
2023/08/02 02:11:30;;;;;;;;;;;;;;;-144.99;nan;52478.66;5028438;28;20023;-73
2023/08/02 02:13:57;;;;;;;;;;;;;;;-144.99;nan;52460.31;5032242;28;20345;-74
2023/08/02 02:16:23;;;;;;;;;;;;;;;-144.99;nan;52484.78;5029748;28;19941;-74
2023/08/02 02:18:49;;;;;;;;;;;;;;;-144.99;nan;52452.16;5019285;28;19965;-74
2023/08/02 02:21:16;;;;;;;;;;;;;;;-144.99;nan;52427.72;5027279;28;19929;-74
2023/08/02 02:23:42;;;;;;;;;;;;;;;-144.99;nan;52488.84;5032082;28;19925;-73
2023/08/02 02:26:09;;;;;;;;;;;;;;;-144.99;nan;52472.56;5024021;28;19925;-75
2023/08/02 02:28:36;;;;;;;;;;;;;;;-144.99;nan;52431.78;5019254;28;19991;-74
2023/08/02 02:31:03;;;;;;;;;;;;;;;-144.99;nan;52431.78;5030728;28;20359;-76
2023/08/02 02:33:29;;;;;;;;;;;;;;;-144.99;nan;52452.16;5031120;28;20024;-76
2023/08/02 02:35:56;;;;;;;;;;;;;;;-144.99;nan;52407.31;5031483;28;19971;-76
2023/08/02 02:38:22;;;;;;;;;;;;;;;-144.99;nan;52444.03;5028079;28;19941;-77
2023/08/02 02:40:49;;;;;;;;;;;;;;;-144.99;nan;52439.94;5027918;28;19956;-78
2023/08/02 02:43:15;;;;;;;;;;;;;;;-144.99;nan;52403.25;5025568;28;19925;-79
2023/08/02 02:45:43;;;;;;;;;;;;;;;-144.99;nan;52435.88;5033747;28;19936;-77
2023/08/02 02:48:09;;;;;;;;;;;;;;;-144.99;nan;52452.16;5030072;28;20012;-76
2023/08/02 02:50:36;;;;;;;;;;;;;;;-144.99;nan;52448.09;5032542;28;20301;-76
2023/08/02 02:53:02;;;;;;;;;;;;;;;-144.99;nan;52474.59;5030807;28;20011;-77
2023/08/02 02:55:29;;;;;;;;;;;;;;;-144.99;nan;52427.72;5028843;28;19933;-76
2023/08/02 02:57:55;;;;;;;;;;;;;;;-144.99;nan;52460.31;5031038;28;19929;-76
2023/08/02 03:00:22;;;;;;;;;;;;;;;-144.99;nan;52439.94;5032042;28;20008;-76
2023/08/02 03:02:50;;;;;;;;;;;;;;;-144.99;nan;52425.66;5027928;28;19929;-76
2023/08/02 03:05:16;;;;;;;;;;;;;;;-144.99;nan;52460.31;5028010;28;20544;-76
2023/08/02 03:07:43;;;;;;;;;;;;;;;-144.99;nan;52452.16;5023543;28;19972;-76
2023/08/02 03:10:09;;;;;;;;;;;;;;;-144.99;nan;52435.88;5026771;28;19925;-75
2023/08/02 03:12:36;;;;;;;;;;;;;;;-144.99;nan;52468.47;5028712;28;20023;-76
2023/08/02 03:15:02;;;;;;;;;;;;;;;-144.99;nan;52433.81;5031073;28;19939;-76
2023/08/02 03:17:29;;;;;;;;;;;;;;;-144.99;nan;52464.41;5021651;28;20359;-77
2023/08/02 03:19:56;;;;;;;;;;;;;;;-144.99;nan;52417.53;5029219;28;20115;-76
2023/08/02 03:22:23;;;;;;;;;;;;;;;-144.99;nan;52435.88;5024109;28;19925;-76
2023/08/02 03:24:49;;;;;;;;;;;;;;;-144.99;nan;52427.72;5035532;28;20479;-77
2023/08/02 03:27:16;;;;;;;;;;;;;;;-144.99;nan;52482.75;5028594;28;19972;-76
2023/08/02 03:29:42;;;;;;;;;;;;;;;-144.99;nan;52452.16;5027850;28;19925;-75
2023/08/02 03:32:09;;;;;;;;;;;;;;;-144.99;nan;52452.16;5028743;28;20436;-74
2023/08/02 03:34:35;;;;;;;;;;;;;;;-144.99;nan;52427.72;5029561;28;20013;-74
2023/08/02 03:37:03;;;;;;;;;;;;;;;-144.99;nan;52444.03;5027836;28;20422;-74
2023/08/02 03:39:29;;;;;;;;;;;;;;;-144.99;nan;52439.94;5025642;28;19925;-74
2023/08/02 03:41:56;;;;;;;;;;;;;;;-144.99;nan;52444.03;5021126;28;19935;-74
2023/08/02 03:44:22;;;;;;;;;;;;;;;-144.99;nan;52431.78;5028339;28;19972;-74
2023/08/02 03:46:49;;;;;;;;;;;;;;;-144.99;nan;52460.31;5019805;28;20304;-74
2023/08/02 03:49:15;;;;;;;;;;;;;;;-144.99;nan;52458.28;5031491;28;19949;-77
2023/08/02 03:51:41;;;;;;;;;;;;;;;-144.99;nan;52468.47;5043057;28;19989;-77
2023/08/02 03:54:09;;;;;;;;;;;;;;;-144.99;nan;52444.03;5044578;28;19936;-77
2023/08/02 03:56:36;;;;;;;;;;;;;;;-144.99;nan;52456.25;5045476;28;19925;-79
2023/08/02 03:59:02;;;;;;;;;;;;;;;-144.99;nan;52488.84;5043860;28;19928;-77
2023/08/02 04:01:28;;;;;;;;;;;;;;;-144.99;nan;52425.66;5048531;28;19925;-76
2023/08/02 04:03:55;;;;;;;;;;;;;;;-144.99;nan;52395.09;5041169;28;19948;-77
2023/08/02 04:06:22;;;;;;;;;;;;;;;-144.99;nan;52456.25;5048338;28;19925;-76
2023/08/02 04:08:48;;;;;;;;;;;;;;;-144.99;nan;52421.59;5033586;28;19988;-76
2023/08/02 04:11:16;;;;;;;;;;;;;;;-144.99;nan;52468.47;5032104;28;19925;-76
2023/08/02 04:13:42;;;;;;;;;;;;;;;-144.99;nan;52431.78;5025973;28;20469;-77
2023/08/02 04:16:09;;;;;;;;;;;;;;;-144.99;nan;52433.81;5023422;28;20008;-77
2023/08/02 04:18:35;;;;;;;;;;;;;;;-144.99;nan;52433.81;5031011;28;19984;-76
2023/08/02 04:21:01;;;;;;;;;;;;;;;-144.99;nan;52462.34;5028988;28;19929;-76
2023/08/02 04:23:28;;;;;;;;;;;;;;;-144.99;nan;52452.16;5027126;28;19968;-75
2023/08/02 04:25:54;;;;;;;;;;;;;;;-144.99;nan;52456.25;5027076;28;19971;-76
2023/08/02 04:28:22;;;;;;;;;;;;;;;-144.99;nan;52472.56;5029637;28;20059;-74
2023/08/02 04:30:52;;;;;;;;;;;;;;;-144.99;nan;52458.28;5030318;28;20023;-76
2023/08/02 04:33:18;;;;;;;;;;;;;;;-144.99;nan;52480.72;5040878;28;20419;-76
2023/08/02 04:35:45;;;;;;;;;;;;;;;-144.99;nan;52452.16;5038601;28;20037;-74
2023/08/02 04:38:11;;;;;;;;;;;;;;;-144.99;nan;52452.16;5040123;28;19940;-75
2023/08/02 04:40:38;;;;;;;;;;;;;;;-144.99;nan;52484.78;5032048;28;19975;-74
2023/08/02 04:43:05;;;;;;;;;;;;;;;-144.99;nan;52444.03;5022652;28;19925;-75
2023/08/02 04:45:32;;;;;;;;;;;;;;;-144.99;nan;52435.88;5016891;28;19952;-74
2023/08/02 04:47:59;;;;;;;;;;;;;;;-144.99;nan;52484.78;5028971;28;19983;-75
2023/08/02 04:50:25;;;;;;;;;;;;;;;-144.99;nan;52411.41;5029326;28;20025;-75
2023/08/02 04:52:52;;;;;;;;;;;;;;;-144.99;nan;52462.34;5026792;28;19925;-74
2023/08/02 04:55:18;;;;;;;;;;;;;;;-144.99;nan;52425.66;5024320;28;19968;-75
2023/08/02 04:57:44;;;;;;;;;;;;;;;-144.99;nan;52448.09;5012317;28;20020;-74
2023/08/02 05:00:11;;;;;;;;;;;;;;;-144.99;nan;52505.16;5024131;28;20396;-75
2023/08/02 05:02:39;;;;;;;;;;;;;;;-144.99;nan;52484.78;5026508;28;19929;-76
2023/08/02 05:05:06;;;;;;;;;;;;;;;-144.99;nan;52448.09;5025187;28;19925;-75
2023/08/02 05:07:33;;;;;;;;;;;;;;;-144.99;nan;52460.31;5017490;28;20011;-75
2023/08/02 05:10:03;;;;;;;;;;;;;;;-144.99;nan;52468.47;5030981;28;19936;-76
2023/08/02 05:12:30;;;;;;;;;;;;;;;-144.99;nan;52454.22;5025473;28;19933;-75
2023/08/02 05:14:57;;;;;;;;;;;;;;;-144.99;nan;52413.44;5028801;28;19929;-73
2023/08/02 05:17:24;;;;;;;;;;;;;;;-144.99;nan;52437.91;4325075;28;10000720;-74
2023/08/02 05:19:51;;;;;;;;;;;;;;;-144.99;nan;52423.63;5021363;28;20023;-74
2023/08/02 05:22:18;;;;;;;;;;;;;;;-144.99;nan;52460.31;5024113;28;19940;-75
2023/08/02 05:24:44;;;;;;;;;;;;;;;-144.99;nan;52450.13;5020877;28;20022;-75
2023/08/02 05:27:11;;;;;;;;;;;;;;;-144.99;nan;52407.31;5016133;28;19969;-75
2023/08/02 05:29:37;;;;;;;;;;;;;;;-144.99;nan;52431.78;5025844;28;20008;-75
2023/08/02 05:32:04;;;;;;;;;;;;;;;-144.99;nan;52409.38;5023196;28;20022;-75
2023/08/02 05:34:30;;;;;;;;;;;;;;;-144.99;nan;52435.88;5023201;28;19935;-75
2023/08/02 05:36:58;;;;;;;;;;;;;;;-144.99;nan;52427.72;5023804;28;20015;-74
2023/08/02 05:39:25;;;;;;;;;;;;;;;-144.99;nan;52427.72;5027203;28;19929;-75
2023/08/02 05:41:51;;;;;;;;;;;;;;;-144.99;nan;52431.78;5017169;28;20033;-75
2023/08/02 05:44:17;;;;;;;;;;;;;;;-144.99;nan;52444.03;5025817;28;19979;-75
2023/08/02 05:46:44;;;;;;;;;;;;;;;-144.99;nan;52411.41;5023982;28;19995;-74
2023/08/02 05:49:10;;;;;;;;;;;;;;;-144.99;nan;52407.31;5025073;28;19936;-75
2023/08/02 05:51:37;;;;;;;;;;;;;;;-144.99;nan;52415.47;5020416;28;20485;-74
2023/08/02 05:54:05;;;;;;;;;;;;;;;-144.99;nan;52391.03;5027346;28;19929;-76
2023/08/02 05:56:31;;;;;;;;;;;;;;;-144.99;nan;52427.72;5023653;28;19970;-74
2023/08/02 05:58:57;;;;;;;;;;;;;;;-144.99;nan;52427.72;5025850;28;20012;-74
2023/08/02 06:01:24;;;;;;;;;;;;;;;-144.99;nan;52439.94;5026011;28;20037;-74
2023/08/02 06:03:50;;;;;;;;;;;;;;;-144.99;nan;52427.72;5027772;28;19929;-75
2023/08/02 06:06:17;;;;;;;;;;;;;;;-144.99;nan;52407.31;5023830;28;19931;-74
2023/08/02 06:08:45;;;;;;;;;;;;;;;-144.99;nan;52374.72;5022172;28;19960;-75
2023/08/02 06:11:13;;;;;;;;;;;;;;;-144.99;nan;52415.47;5020643;28;20032;-75
2023/08/02 06:13:40;;;;;;;;;;;;;;;-144.99;nan;52368.59;5025052;28;19979;-75
2023/08/02 06:16:06;;;;;;;;;;;;;;;-144.99;nan;52378.78;5027664;28;19989;-76
2023/08/02 06:18:33;;;;;;;;;;;;;;;-144.99;nan;52425.66;5026340;28;19939;-75
2023/08/02 06:20:59;;;;;;;;;;;;;;;-144.99;nan;52399.19;5029553;28;19963;-75
2023/08/02 06:23:26;;;;;;;;;;;;;;;-144.99;nan;52380.84;5033670;28;19929;-75
2023/08/02 06:25:52;;;;;;;;;;;;;;;-144.99;nan;52433.81;5031727;28;19960;-75
2023/08/02 06:28:20;;;;;;;;;;;;;;;-144.99;nan;52399.19;5042070;28;19993;-74
2023/08/02 06:30:46;;;;;;;;;;;;;;;-144.99;nan;52407.31;5048582;28;20384;-75
2023/08/02 06:33:13;;;;;;;;;;;;;;;-144.99;nan;52399.19;5040012;28;19968;-74
2023/08/02 06:35:39;;;;;;;;;;;;;;;-144.99;nan;52382.88;5020402;28;19933;-73
2023/08/02 06:38:06;;;;;;;;;;;;;;;-144.99;nan;52391.03;5028727;28;20019;-74
2023/08/02 06:40:32;;;;;;;;;;;;;;;-144.99;nan;52403.25;5024681;28;19933;-73
2023/08/02 06:42:59;;;;;;;;;;;;;;;-144.99;nan;52382.88;5022325;28;20016;-75
2023/08/02 06:45:26;;;;;;;;;;;;;;;-144.99;nan;52374.72;5021699;28;19967;-74
2023/08/02 06:47:53;;;;;;;;;;;;;;;-144.99;nan;52393.06;5025773;28;19929;-74
2023/08/02 06:50:19;;;;;;;;;;;;;;;-144.99;nan;52399.19;5033071;28;20394;-77
2023/08/02 06:52:46;;;;;;;;;;;;;;;-144.99;nan;52427.72;5029536;28;19972;-76
2023/08/02 06:55:12;;;;;;;;;;;;;;;-144.99;nan;52407.31;4683168;28;10000506;-75
2023/08/02 06:57:38;;;;;;;;;;;;;;;-144.99;nan;52415.47;5027323;28;20021;-74
2023/08/02 07:00:05;;;;;;;;;;;;;;;-144.99;nan;52423.63;5027777;28;20025;-74
2023/08/02 07:02:33;;;;;;;;;;;;;;;-144.99;nan;52395.09;5027740;28;20307;-76
2023/08/02 07:04:59;;;;;;;;;;;;;;;-144.99;nan;52399.19;5031135;28;19929;-75
2023/08/02 07:07:26;;;;;;;;;;;;;;;-144.99;nan;52399.19;5019852;28;19964;-76
2023/08/02 07:09:52;;;;;;;;;;;;;;;-144.99;nan;52415.47;5027895;28;19967;-75
2023/08/02 07:12:19;;;;;;;;;;;;;;;-144.99;nan;52382.88;5024156;28;20034;-74
2023/08/02 07:14:45;;;;;;;;;;;;;;;-144.99;nan;52391.03;5022371;28;20291;-75
2023/08/02 07:17:12;;;;;;;;;;;;;;;-144.99;nan;52386.94;5026191;28;20662;-74
2023/08/02 07:19:39;;;;;;;;;;;;;;;-144.99;nan;52403.25;5026449;28;19980;-74
2023/08/02 07:22:06;;;;;;;;;;;;;;;-144.99;nan;52397.13;5025651;28;20008;-74
2023/08/02 07:24:32;;;;;;;;;;;;;;;-144.99;nan;52352.28;5028781;28;19947;-75
2023/08/02 07:26:59;;;;;;;;;;;;;;;-144.99;nan;52439.94;5025888;28;20424;-74
2023/08/02 07:29:25;;;;;;;;;;;;;;;-144.99;nan;52415.47;5041201;28;19952;-74
2023/08/02 07:31:51;;;;;;;;;;;;;;;-144.99;nan;52378.78;5044217;28;19929;-74
2023/08/02 07:34:18;;;;;;;;;;;;;;;-144.99;nan;52391.03;5059379;28;19952;-75
2023/08/02 07:36:46;;;;;;;;;;;;;;;-144.99;nan;52427.72;5054378;28;19948;-75
2023/08/02 07:39:12;;;;;;;;;;;;;;;-144.99;nan;52407.31;5054926;28;19925;-74
2023/08/02 07:41:38;;;;;;;;;;;;;;;-144.99;nan;52403.25;5058231;28;19912;-75
2023/08/02 07:44:05;;;;;;;;;;;;;;;-144.99;nan;52395.09;5053790;28;19941;-74
2023/08/02 07:46:31;;;;;;;;;;;;;;;-144.99;nan;52393.06;5050986;28;19917;-75
2023/08/02 07:48:58;;;;;;;;;;;;;;;-144.99;nan;52368.59;5051438;28;19933;-74
2023/08/02 07:51:24;;;;;;;;;;;;;;;-144.99;nan;52399.19;5052457;28;19921;-75
2023/08/02 07:53:52;;;;;;;;;;;;;;;-144.99;nan;52421.59;5054467;28;19916;-74
2023/08/02 07:56:18;;;;;;;;;;;;;;;-144.99;nan;52407.31;5050449;28;19926;-76
2023/08/02 07:58:45;;;;;;;;;;;;;;;-144.99;nan;52395.09;5048520;28;19924;-74
2023/08/02 08:01:11;;;;;;;;;;;;;;;-144.99;nan;52388.97;5051321;28;19932;-75
2023/08/02 08:03:38;;;;;;;;;;;;;;;-144.99;nan;52358.41;5052142;28;19925;-76
2023/08/02 08:06:11;;;;;;;;;;;;;;;-144.99;nan;52378.78;5032184;28;19929;-75
2023/08/02 08:08:37;;;;;;;;;;;;;;;-144.99;nan;52393.06;5032755;28;20011;-74
2023/08/02 08:11:05;;;;;;;;;;;;;;;-144.99;nan;52350.25;5034702;28;19965;-76
2023/08/02 08:13:32;;;;;;;;;;;;;;;-144.99;nan;52374.72;5033740;28;19925;-74
2023/08/02 08:15:58;;;;;;;;;;;;;;;-144.99;nan;52346.19;5041239;28;19936;-76
2023/08/02 08:18:24;;;;;;;;;;;;;;;-144.99;nan;52338.03;5043958;28;19933;-75
2023/08/02 08:20:51;;;;;;;;;;;;;;;-144.99;nan;52384.91;5047294;28;19929;-76
2023/08/02 08:23:17;;;;;;;;;;;;;;;-144.99;nan;52354.34;5051808;28;19967;-75
2023/08/02 08:25:44;;;;;;;;;;;;;;;-144.99;nan;52354.34;5049717;28;19972;-76
2023/08/02 08:28:11;;;;;;;;;;;;;;;-144.99;nan;52407.31;5048980;28;20207;-76
2023/08/02 08:30:38;;;;;;;;;;;;;;;-144.99;nan;52354.34;5051964;28;19925;-76
2023/08/02 08:33:04;;;;;;;;;;;;;;;-144.99;nan;52362.50;5047220;28;19925;-76
2023/08/02 08:35:33;;;;;;;;;;;;;;;-144.99;nan;52380.84;5046991;28;19929;-76
2023/08/02 08:38:00;;;;;;;;;;;;;;;-144.99;nan;52372.69;5056088;28;19913;-75
2023/08/02 08:40:26;;;;;;;;;;;;;;;-144.99;nan;52419.56;5051967;28;19925;-75
2023/08/02 08:42:54;;;;;;;;;;;;;;;-144.99;nan;52374.72;5046454;28;19963;-75
2023/08/02 08:45:23;;;;;;;;;;;;;;;-144.99;nan;52382.88;5035920;28;19933;-76
2023/08/02 08:47:49;;;;;;;;;;;;;;;-144.99;nan;52362.50;5045254;28;19929;-75
2023/08/02 08:50:17;;;;;;;;;;;;;;;-144.99;nan;52382.88;5044592;28;19932;-76
2023/08/02 08:52:45;;;;;;;;;;;;;;;-144.99;nan;52415.47;5057040;28;19929;-76
2023/08/02 08:55:13;;;;;;;;;;;;;;;-144.99;nan;52350.25;5046240;28;20477;-75
2023/08/02 08:57:40;;;;;;;;;;;;;;;-144.99;nan;52391.03;5046673;28;19913;-75
2023/08/02 09:00:08;;;;;;;;;;;;;;;-144.99;nan;52399.19;5050604;28;19925;-76
2023/08/02 09:02:37;;;;;;;;;;;;;;;-144.99;nan;52362.50;5051849;28;19921;-75
2023/08/02 09:05:04;;;;;;;;;;;;;;;-144.99;nan;52368.59;5047931;28;19947;-75
2023/08/02 09:07:31;;;;;;;;;;;;;;;-144.99;nan;52350.25;5041724;28;19913;-75
2023/08/02 09:09:57;;;;;;;;;;;;;;;-144.99;nan;52338.03;5047851;28;20001;-76
2023/08/02 09:12:24;;;;;;;;;;;;;;;-144.99;nan;52321.72;5048917;28;20244;-74
2023/08/02 09:15:01;;;;;;;;;;;;;;;-144.99;nan;52352.28;5047346;28;19948;-75
2023/08/02 09:17:27;;;;;;;;;;;;;;;-144.99;nan;52317.66;5041178;28;19959;-75
2023/08/02 09:20:08;;;;;;;;;;;;;;;-144.99;nan;52329.88;5033233;28;20011;-73
2023/08/02 09:22:34;;;;;;;;;;;;;;;-144.99;nan;52325.81;5024219;28;20342;-74
2023/08/02 09:25:03;;;;;;;;;;;;;;;-144.99;nan;52354.34;5026864;28;19972;-75
2023/08/02 09:27:30;;;;;;;;;;;;;;;-144.99;nan;52354.34;5026754;28;19929;-76
2023/08/02 09:29:57;;;;;;;;;;;;;;;-144.99;nan;52393.06;5043038;28;20021;-75
2023/08/02 09:32:24;;;;;;;;;;;;;;;-144.99;nan;52352.28;5030182;28;20007;-75
2023/08/02 09:34:51;;;;;;;;;;;;;;;-144.99;nan;52374.72;5026224;28;19986;-74
2023/08/02 09:37:29;;;;;;;;;;;;;;;-144.99;nan;52374.72;5024028;28;20004;-74
2023/08/02 09:39:56;;;;;;;;;;;;;;;-144.99;nan;52411.41;5030133;28;19964;-75
2023/08/02 09:42:23;;;;;;;;;;;;;;;-144.99;nan;52399.19;5033164;28;20023;-75
2023/08/02 09:44:53;;;;;;;;;;;;;;;-144.99;nan;52399.19;5022430;28;20487;-75
2023/08/02 09:47:19;;;;;;;;;;;;;;;-144.99;nan;52386.94;5034221;28;19924;-72
2023/08/02 09:50:01;;;;;;;;;;;;;;;-144.99;nan;52346.19;5026153;28;19969;-76
2023/08/02 09:52:29;;;;;;;;;;;;;;;-144.99;nan;52338.03;5030396;28;20012;-75
2023/08/02 09:54:56;;;;;;;;;;;;;;;-144.99;nan;52370.63;5021360;28;19956;-75
2023/08/02 09:57:25;;;;;;;;;;;;;;;-144.99;nan;52333.94;5029803;28;20797;-74
2023/08/02 09:59:52;;;;;;;;;;;;;;;-144.99;nan;52374.72;5027073;28;20437;-75
2023/08/02 10:02:20;;;;;;;;;;;;;;;-144.99;nan;52356.38;5025928;28;20012;-74
2023/08/02 10:04:47;;;;;;;;;;;;;;;-144.99;nan;52382.88;5028764;28;20451;-74
2023/08/02 10:07:15;;;;;;;;;;;;;;;-144.99;nan;52354.34;5029108;28;19977;-74
2023/08/02 10:09:43;;;;;;;;;;;;;;;-144.99;nan;52372.69;5035884;28;19971;-76
2023/08/02 10:12:12;;;;;;;;;;;;;;;-144.99;nan;52317.66;5044007;28;19929;-75
2023/08/02 10:14:38;;;;;;;;;;;;;;;-144.99;nan;52368.59;5033327;28;19929;-75
2023/08/02 10:17:05;;;;;;;;;;;;;;;-144.99;nan;52364.53;5037974;28;19925;-74
2023/08/02 10:19:33;;;;;;;;;;;;;;;-144.99;nan;52362.50;5031726;28;19933;-75
2023/08/02 10:22:01;;;;;;;;;;;;;;;-144.99;nan;52354.34;5042746;28;19929;-76
2023/08/02 10:24:27;;;;;;;;;;;;;;;-144.99;nan;52338.03;5037661;28;19988;-77
2023/08/02 10:26:56;;;;;;;;;;;;;;;-144.99;nan;52411.41;5025958;28;19991;-75
2023/08/02 10:29:24;;;;;;;;;;;;;;;-144.99;nan;52384.91;5029528;28;20003;-75
2023/08/02 10:31:50;;;;;;;;;;;;;;;-144.99;nan;52386.94;5024524;28;20036;-75
2023/08/02 10:34:40;;;;;;;;;;;;;;;-144.99;nan;52407.31;5024563;28;20032;-75
2023/08/02 10:37:07;;;;;;;;;;;;;;;-144.99;nan;52382.88;5013168;28;19969;-75
2023/08/02 10:39:48;;;;;;;;;;;;;;;-144.99;nan;52391.03;5018480;28;20645;-76
2023/08/02 10:42:16;;;;;;;;;;;;;;;-144.99;nan;52399.19;5027909;28;20442;-74
2023/08/02 10:45:10;;;;;;;;;;;;;;;-144.99;nan;52380.84;5021618;28;20364;-76
2023/08/02 10:47:37;;;;;;;;;;;;;;;-144.99;nan;52427.72;5022717;28;20008;-75
2023/08/02 10:50:04;;;;;;;;;;;;;;;-144.99;nan;52439.94;5021976;28;20445;-75
2023/08/02 10:52:31;;;;;;;;;;;;;;;-144.99;nan;52419.56;5024694;28;19929;-75
2023/08/02 10:55:05;;;;;;;;;;;;;;;-144.99;nan;52407.31;5022656;28;19979;-75
2023/08/02 10:57:33;;;;;;;;;;;;;;;-144.99;nan;52376.75;5027570;28;19929;-75
2023/08/02 10:59:59;;;;;;;;;;;;;;;-144.99;nan;52372.69;5029749;28;20028;-75
2023/08/02 11:02:26;;;;;;;;;;;;;;;-144.99;nan;52374.72;5021695;28;20036;-76
2023/08/02 11:04:53;;;;;;;;;;;;;;;-144.99;nan;52395.09;5023349;28;20040;-75
2023/08/02 11:07:21;;;;;;;;;;;;;;;-144.99;nan;52439.94;5027968;28;19964;-74
2023/08/02 11:09:48;;;;;;;;;;;;;;;-144.99;nan;52425.66;5028508;28;19936;-75
2023/08/02 11:12:15;;;;;;;;;;;;;;;-144.99;nan;52399.19;5028077;28;20018;-75
2023/08/02 11:14:44;;;;;;;;;;;;;;;-144.99;nan;52395.09;5021453;28;19969;-74
2023/08/02 11:17:11;;;;;;;;;;;;;;;-144.99;nan;52407.31;5024983;28;20335;-76
2023/08/02 11:19:37;;;;;;;;;;;;;;;-144.99;nan;52378.78;5028380;28;20830;-74
2023/08/02 11:22:04;;;;;;;;;;;;;;;-144.99;nan;52419.56;5027182;28;20008;-76
2023/08/02 11:24:41;;;;;;;;;;;;;;;-144.99;nan;52423.63;5019145;28;20432;-76
2023/08/02 11:27:08;;;;;;;;;;;;;;;-144.99;nan;52393.06;5025649;28;20335;-74
2023/08/02 11:29:35;;;;;;;;;;;;;;;-144.99;nan;52388.97;5027918;28;20021;-75
2023/08/02 11:32:04;;;;;;;;;;;;;;;-144.99;nan;52386.94;5026115;28;20028;-74
2023/08/02 11:34:30;;;;;;;;;;;;;;;-144.99;nan;52437.91;5020331;28;19968;-73
2023/08/02 11:36:57;;;;;;;;;;;;;;;-144.99;nan;52386.94;5022832;28;20315;-74
2023/08/02 11:39:23;;;;;;;;;;;;;;;-144.99;nan;52391.03;5019446;28;20450;-74
2023/08/02 11:42:01;;;;;;;;;;;;;;;-144.99;nan;52407.31;5018279;28;20201;-76
2023/08/02 11:44:27;;;;;;;;;;;;;;;-144.99;nan;52421.59;5027543;28;19972;-74
2023/08/02 11:46:54;;;;;;;;;;;;;;;-144.99;nan;52415.47;5021875;28;20043;-74
2023/08/02 11:49:22;;;;;;;;;;;;;;;-144.99;nan;52382.88;5027734;28;19933;-74
2023/08/02 11:51:48;;;;;;;;;;;;;;;-144.99;nan;52380.84;5028129;28;20416;-74
2023/08/02 11:54:16;;;;;;;;;;;;;;;-144.99;nan;52415.47;5025283;28;20014;-74
2023/08/02 11:56:42;;;;;;;;;;;;;;;-144.99;nan;52374.72;5025265;28;20471;-74
2023/08/02 11:59:09;;;;;;;;;;;;;;;-144.99;nan;52425.66;5040313;28;19929;-74
2023/08/02 12:01:38;;;;;;;;;;;;;;;-144.99;nan;52366.56;5043463;28;19929;-74
2023/08/02 12:04:06;;;;;;;;;;;;;;;-144.99;nan;52391.03;5036345;28;19935;-74
2023/08/02 12:06:47;;;;;;;;;;;;;;;-144.99;nan;52415.47;5017419;28;20486;-75
2023/08/02 12:09:14;;;;;;;;;;;;;;;-144.99;nan;52452.16;5022494;28;19933;-75
2023/08/02 12:11:40;;;;;;;;;;;;;;;-144.99;nan;52444.03;5028667;28;19925;-74
2023/08/02 12:14:07;;;;;;;;;;;;;;;-144.99;nan;52384.91;5024385;28;20542;-75
2023/08/02 12:16:40;;;;;;;;;;;;;;;-144.99;nan;52439.94;5015438;28;20019;-75
2023/08/02 12:19:06;;;;;;;;;;;;;;;-144.99;nan;52407.31;5024528;28;20015;-75
2023/08/02 12:21:33;;;;;;;;;;;;;;;-144.99;nan;52415.47;5024465;28;19929;-75
2023/08/02 12:24:12;;;;;;;;;;;;;;;-144.99;nan;52391.03;5024721;28;20031;-75
2023/08/02 12:26:40;;;;;;;;;;;;;;;-144.99;nan;52386.94;5021481;28;20198;-74
2023/08/02 12:29:06;;;;;;;;;;;;;;;-144.99;nan;52393.06;5030597;28;20019;-75
2023/08/02 12:31:41;;;;;;;;;;;;;;;-144.99;nan;52386.94;5028722;28;19960;-74
2023/08/02 12:34:07;;;;;;;;;;;;;;;-144.99;nan;52391.03;5027932;28;19925;-75
2023/08/02 12:36:33;;;;;;;;;;;;;;;-144.99;nan;52370.63;5021811;28;19980;-76
2023/08/02 12:39:01;;;;;;;;;;;;;;;-144.99;nan;52386.94;5026239;28;19929;-75
2023/08/02 12:41:28;;;;;;;;;;;;;;;-144.99;nan;52393.06;5020425;28;19933;-74
2023/08/02 12:43:54;;;;;;;;;;;;;;;-144.99;nan;52419.56;5020865;28;19935;-74
2023/08/02 12:46:21;;;;;;;;;;;;;;;-144.99;nan;52407.31;5025177;28;20015;-75